createdAt,value
2018-10-11T00:00:57.765Z,34.03
2018-10-11T00:03:26.246Z,35.13
2018-10-11T00:05:54.230Z,36.10
2018-10-11T00:08:22.384Z,32.10
2018-10-11T00:10:50.492Z,37.90
2018-10-11T00:13:18.720Z,34.50
2018-10-11T00:15:46.734Z,40.60
2018-10-11T00:18:14.738Z,41.03
2018-10-11T00:20:42.875Z,37.10
2018-10-11T00:23:10.841Z,37.83
2018-10-11T00:25:38.796Z,34.00
2018-10-11T00:28:06.818Z,38.67
2018-10-11T00:30:34.808Z,43.63
2018-10-11T00:33:02.832Z,35.03
2018-10-11T00:35:31.483Z,37.00
2018-10-11T00:37:59.737Z,39.03
2018-10-11T00:40:27.732Z,34.60
2018-10-11T00:42:55.753Z,40.77
2018-10-11T00:45:24.282Z,36.07
2018-10-11T00:47:52.348Z,39.60
2018-10-11T00:50:20.307Z,33.30
2018-10-11T00:52:48.266Z,40.90
2018-10-11T00:55:16.243Z,40.93
2018-10-11T00:57:44.192Z,34.43
2018-10-11T01:00:12.230Z,40.30
2018-10-11T01:02:40.573Z,38.93
2018-10-11T01:05:08.633Z,38.87
2018-10-11T01:07:36.618Z,41.20
2018-10-11T01:10:04.765Z,38.73
2018-10-11T01:12:32.965Z,40.57
2018-10-11T01:15:00.944Z,40.20
2018-10-11T01:17:28.962Z,40.50
2018-10-11T01:19:56.943Z,52.73
2018-10-11T01:22:24.898Z,47.73
2018-10-11T01:24:52.882Z,42.50
2018-10-11T01:27:20.868Z,46.00
2018-10-11T01:29:48.910Z,46.53
2018-10-11T01:32:17.243Z,41.70
2018-10-11T01:34:45.274Z,45.83
2018-10-11T01:37:13.345Z,43.03
2018-10-11T01:39:41.301Z,41.33
2018-10-11T01:42:09.277Z,37.57
2018-10-11T01:44:37.265Z,43.50
2018-10-11T01:47:05.508Z,51.13
2018-10-11T01:49:33.528Z,43.30
2018-10-11T01:52:01.530Z,49.10
2018-10-11T01:54:29.502Z,40.77
2018-10-11T01:56:57.844Z,44.40
2018-10-11T01:59:25.865Z,56.63
2018-10-11T02:01:54.221Z,48.80
2018-10-11T02:04:22.201Z,40.23
2018-10-11T02:06:50.548Z,42.17
2018-10-11T02:09:18.591Z,43.53
2018-10-11T02:11:46.559Z,49.10
2018-10-11T02:14:14.505Z,45.03
2018-10-11T02:16:42.467Z,50.13
2018-10-11T02:19:10.699Z,52.47
2018-10-11T02:21:38.970Z,43.93
2018-10-11T02:24:07.433Z,42.20
2018-10-11T02:26:35.729Z,41.40
2018-10-11T02:29:03.822Z,45.53
2018-10-11T02:31:31.745Z,45.00
2018-10-11T02:33:59.756Z,45.00
2018-10-11T02:36:27.721Z,45.80
2018-10-11T02:38:55.655Z,42.83
2018-10-11T02:41:23.627Z,42.53
2018-10-11T02:43:51.585Z,44.13
2018-10-11T02:46:19.552Z,46.27
2018-10-11T02:48:47.543Z,48.90
2018-10-11T02:51:15.495Z,42.10
2018-10-11T02:53:43.569Z,51.53
2018-10-11T02:56:12.625Z,53.17
2018-10-11T02:58:54.612Z,48.03
2018-10-11T03:01:22.668Z,50.07
2018-10-11T03:03:56.638Z,51.17
2018-10-11T03:06:24.749Z,48.73
2018-10-11T03:08:52.841Z,49.77
2018-10-11T03:11:20.883Z,57.10
2018-10-11T03:13:49.128Z,58.20
2018-10-11T03:16:17.538Z,59.03
2018-10-11T03:18:45.531Z,51.23
2018-10-11T03:21:13.483Z,54.50
2018-10-11T03:23:41.755Z,58.00
2018-10-11T03:26:09.703Z,56.80
2018-10-11T03:28:37.661Z,56.63
2018-10-11T03:31:05.970Z,59.13
2018-10-11T03:33:33.921Z,52.77
2018-10-11T03:36:02.119Z,58.27
2018-10-11T03:38:30.394Z,63.03
2018-10-11T03:40:59.484Z,56.83
2018-10-11T03:43:27.419Z,58.17
2018-10-11T03:45:55.385Z,54.63
2018-10-11T03:48:23.664Z,67.90
2018-10-11T03:50:51.611Z,60.17
2018-10-11T03:53:19.634Z,60.20
2018-10-11T03:55:47.649Z,56.00
2018-10-11T03:58:15.599Z,60.20
2018-10-11T04:00:43.589Z,57.20
2018-10-11T04:03:11.496Z,52.57
2018-10-11T04:05:39.436Z,71.57
2018-10-11T04:08:07.308Z,61.50
2018-10-11T04:10:35.216Z,59.00
2018-10-11T04:13:03.078Z,64.33
2018-10-11T04:15:30.984Z,61.67
2018-10-11T04:17:58.847Z,60.80
2018-10-11T04:20:26.961Z,60.63
2018-10-11T04:22:54.779Z,59.13
2018-10-11T04:25:22.633Z,62.37
2018-10-11T04:27:50.468Z,64.07
2018-10-11T04:30:18.300Z,55.43
2018-10-11T04:32:46.322Z,56.23
2018-10-11T04:35:14.178Z,63.67
2018-10-11T04:37:42.034Z,68.87
2018-10-11T04:40:09.901Z,55.23
2018-10-11T04:42:37.824Z,62.67
2018-10-11T04:45:05.664Z,63.93
2018-10-11T04:47:33.503Z,62.23
2018-10-11T04:50:01.356Z,62.30
2018-10-11T04:52:29.571Z,58.27
2018-10-11T04:54:57.433Z,61.60
2018-10-11T04:57:25.247Z,63.60
2018-10-11T04:59:53.290Z,60.40
2018-10-11T05:02:21.076Z,84.30
2018-10-11T05:04:49.954Z,66.37
2018-10-11T05:07:18.106Z,59.57
2018-10-11T05:09:45.979Z,66.13
2018-10-11T05:12:13.993Z,61.07
2018-10-11T05:14:42.597Z,58.23
2018-10-11T05:17:10.534Z,61.70
2018-10-11T05:19:39.280Z,60.37
2018-10-11T05:22:07.207Z,63.30
2018-10-11T05:24:35.089Z,67.13
2018-10-11T05:27:02.926Z,57.83
2018-10-11T05:29:30.764Z,60.10
2018-10-11T05:31:58.689Z,61.73
2018-10-11T05:34:26.662Z,68.83
2018-10-11T05:36:54.548Z,61.93
2018-10-11T05:39:22.493Z,59.93
2018-10-11T05:41:50.487Z,66.77
2018-10-11T05:44:18.363Z,60.00
2018-10-11T05:46:46.269Z,66.23
2018-10-11T05:49:14.498Z,65.90
2018-10-11T05:51:42.388Z,61.70
2018-10-11T05:54:10.415Z,60.70
2018-10-11T05:56:41.278Z,60.87
2018-10-11T05:59:09.636Z,67.03
2018-10-11T06:01:37.539Z,70.73
2018-10-11T06:04:06.814Z,64.50
2018-10-11T06:06:35.397Z,71.80
2018-10-11T06:09:04.477Z,57.40
2018-10-11T06:11:32.367Z,60.60
2018-10-11T06:14:00.368Z,70.00
2018-10-11T06:16:28.243Z,63.50
2018-10-11T06:18:56.137Z,70.37
2018-10-11T06:21:24.113Z,69.80
2018-10-11T06:23:51.976Z,65.13
2018-10-11T06:26:19.873Z,69.43
2018-10-11T06:28:48.504Z,63.37
2018-10-11T06:31:16.510Z,65.80
2018-10-11T06:33:44.681Z,55.23
2018-10-11T06:36:13.326Z,61.07
2018-10-11T06:38:41.919Z,61.57
2018-10-11T06:41:09.963Z,65.20
2018-10-11T06:43:38.678Z,56.00
2018-10-11T06:46:07.292Z,54.93
2018-10-11T06:48:35.528Z,53.83
2018-10-11T06:51:03.504Z,52.40
2018-10-11T06:53:31.406Z,58.43
2018-10-11T06:55:59.287Z,57.73
2018-10-11T06:58:27.166Z,51.70
2018-10-11T07:00:55.438Z,50.10
2018-10-11T07:03:23.247Z,50.20
2018-10-11T07:05:51.169Z,53.43
2018-10-11T07:08:18.989Z,48.23
2018-10-11T07:10:47.340Z,48.20
2018-10-11T07:13:15.201Z,54.53
2018-10-11T07:15:43.101Z,50.80
2018-10-11T07:18:10.919Z,53.93
2018-10-11T07:20:38.733Z,54.37
2018-10-11T07:23:06.570Z,51.60
2018-10-11T07:25:34.432Z,45.80
2018-10-11T07:28:02.293Z,57.07
2018-10-11T07:30:30.156Z,56.70
2018-10-11T07:32:57.987Z,56.53
2018-10-11T07:35:26.042Z,51.30
2018-10-11T07:37:53.762Z,51.37
2018-10-11T07:40:21.639Z,58.90
2018-10-11T07:42:49.674Z,49.83
2018-10-11T07:45:17.848Z,63.53
2018-10-11T07:47:45.766Z,51.63
2018-10-11T07:50:13.594Z,57.80
2018-10-11T07:52:41.784Z,55.33
2018-10-11T07:55:09.549Z,45.60
2018-10-11T07:57:37.421Z,45.43
2018-10-11T08:00:05.708Z,44.63
2018-10-11T08:02:33.604Z,50.60
2018-10-11T08:05:01.465Z,52.77
2018-10-11T08:07:29.404Z,43.77
2018-10-11T08:09:57.236Z,44.77
2018-10-11T08:12:25.415Z,41.90
2018-10-11T08:14:53.308Z,46.07
2018-10-11T08:17:21.416Z,43.37
2018-10-11T08:19:49.147Z,48.83
2018-10-11T08:22:17.295Z,41.03
2018-10-11T08:24:45.226Z,42.13
2018-10-11T08:27:13.401Z,42.77
2018-10-11T08:29:41.277Z,43.40
2018-10-11T08:32:09.137Z,49.03
2018-10-11T08:34:37.169Z,46.70
2018-10-11T08:37:05.046Z,44.73
2018-10-11T08:39:32.934Z,41.67
2018-10-11T08:42:00.769Z,51.43
2018-10-11T08:44:28.644Z,49.03
2018-10-11T08:46:56.558Z,45.33
2018-10-11T08:49:24.431Z,43.23
2018-10-11T08:51:52.240Z,48.27
2018-10-11T08:54:25.837Z,42.57
2018-10-11T08:56:53.866Z,45.93
2018-10-11T08:59:21.883Z,50.23
2018-10-11T09:01:49.639Z,48.33
2018-10-11T09:04:17.542Z,43.80
2018-10-11T09:06:45.349Z,49.80
2018-10-11T09:09:13.170Z,50.10
2018-10-11T09:11:41.033Z,42.33
2018-10-11T09:14:08.869Z,45.47
2018-10-11T09:16:37.242Z,37.00
2018-10-11T09:19:05.122Z,41.60
2018-10-11T09:21:32.996Z,42.80
2018-10-11T09:24:01.213Z,49.37
2018-10-11T09:26:29.125Z,49.00
2018-10-11T09:28:57.023Z,47.00
2018-10-11T09:31:25.150Z,48.53
2018-10-11T09:33:53.028Z,46.80
2018-10-11T09:36:20.912Z,53.93
2018-10-11T09:38:49.315Z,39.80
2018-10-11T09:41:17.192Z,45.80
2018-10-11T09:43:45.044Z,42.50
2018-10-11T09:46:12.881Z,42.93
2018-10-11T09:48:45.298Z,43.97
2018-10-11T09:51:17.433Z,37.50
2018-10-11T09:53:45.270Z,40.83
2018-10-11T09:56:13.278Z,56.57
2018-10-11T09:58:41.110Z,42.47
2018-10-11T10:01:14.548Z,45.13
2018-10-11T10:03:42.386Z,44.33
2018-10-11T10:06:10.199Z,45.03
2018-10-11T10:08:38.049Z,37.93
2018-10-11T10:11:05.888Z,40.80
2018-10-11T10:13:33.712Z,42.33
2018-10-11T10:16:01.575Z,34.63
2018-10-11T10:18:29.674Z,34.97
2018-10-11T10:20:57.543Z,36.10
2018-10-11T10:23:25.393Z,35.77
2018-10-11T10:25:53.191Z,33.63
2018-10-11T10:28:21.340Z,33.57
2018-10-11T10:30:54.741Z,40.97
2018-10-11T10:33:23.975Z,46.67
2018-10-11T10:35:52.195Z,35.43
2018-10-11T10:38:21.307Z,39.83
2018-10-11T10:40:50.565Z,42.10
2018-10-11T10:43:21.074Z,32.20
2018-10-11T10:45:50.271Z,34.73
2018-10-11T10:48:20.903Z,31.70
2018-10-11T10:50:49.564Z,36.50
2018-10-11T10:53:18.431Z,40.70
2018-10-11T10:55:47.483Z,43.63
2018-10-11T10:58:16.361Z,36.17
2018-10-11T11:00:44.196Z,37.77
2018-10-11T11:03:12.042Z,35.90
2018-10-11T11:05:39.875Z,39.97
2018-10-11T11:08:07.767Z,32.93
2018-10-11T11:10:35.627Z,35.03
2018-10-11T11:13:03.580Z,33.23
2018-10-11T11:15:31.438Z,32.23
2018-10-11T11:17:59.351Z,33.63
2018-10-11T11:20:27.251Z,36.50
2018-10-11T11:22:56.015Z,33.73
2018-10-11T11:25:23.971Z,34.93
2018-10-11T11:27:51.853Z,36.97
2018-10-11T11:30:19.730Z,30.17
2018-10-11T11:32:47.622Z,38.43
2018-10-11T11:35:15.593Z,32.63
2018-10-11T11:37:43.492Z,35.00
2018-10-11T11:40:11.388Z,30.83
2018-10-11T11:42:39.315Z,29.67
2018-10-11T11:45:07.352Z,31.97
2018-10-11T11:47:35.223Z,32.80
2018-10-11T11:50:03.217Z,31.60
2018-10-11T11:52:31.128Z,34.97
2018-10-11T11:54:59.334Z,35.47
2018-10-11T11:57:27.269Z,32.73
2018-10-11T11:59:55.208Z,35.10
2018-10-11T12:02:23.293Z,30.40
2018-10-11T12:04:51.769Z,34.00
2018-10-11T12:07:20.380Z,34.90
2018-10-11T12:09:48.944Z,34.13
2018-10-11T12:12:49.614Z,33.50
2018-10-11T12:15:18.312Z,31.50
2018-10-11T12:17:46.226Z,31.47
2018-10-11T12:20:14.069Z,35.70
2018-10-11T12:22:42.001Z,32.27
2018-10-11T12:25:10.193Z,31.33
2018-10-11T12:27:38.054Z,43.20
2018-10-11T12:30:06.095Z,31.60
2018-10-11T12:32:33.965Z,32.90
2018-10-11T12:35:03.198Z,32.70
2018-10-11T12:37:31.079Z,40.20
2018-10-11T12:39:59.743Z,31.47
2018-10-11T12:42:27.747Z,38.13
2018-10-11T12:44:55.739Z,31.60
2018-10-11T12:47:24.276Z,40.13
2018-10-11T12:49:52.234Z,28.93
2018-10-11T12:52:20.147Z,28.87
2018-10-11T12:54:48.768Z,30.10
2018-10-11T12:57:20.370Z,36.33
2018-10-11T12:59:45.171Z,30.13
2018-10-11T13:02:13.083Z,27.20
2018-10-11T13:04:41.107Z,26.53
2018-10-11T13:07:09.249Z,27.73
2018-10-11T13:09:38.086Z,29.00
2018-10-11T13:12:05.990Z,31.83
2018-10-11T13:14:33.909Z,27.07
2018-10-11T13:17:01.818Z,28.30
2018-10-11T13:19:29.733Z,26.73
2018-10-11T13:21:57.648Z,35.33
2018-10-11T13:24:25.544Z,28.30
2018-10-11T13:26:53.474Z,36.53
2018-10-11T13:29:21.360Z,29.30
2018-10-11T13:31:49.537Z,32.03
2018-10-11T13:34:17.376Z,23.70
2018-10-11T13:36:47.801Z,31.10
2018-10-11T13:39:18.769Z,34.63
2018-10-11T13:41:48.885Z,32.23
2018-10-11T13:44:18.841Z,33.87
2018-10-11T13:46:49.131Z,23.40
2018-10-11T13:49:17.042Z,32.17
2018-10-11T13:51:44.884Z,30.63
2018-10-11T13:54:17.760Z,24.53
2018-10-11T13:56:50.437Z,24.90
2018-10-11T13:59:15.185Z,22.90
2018-10-11T14:01:41.952Z,24.97
2018-10-11T14:04:09.809Z,23.93
2018-10-11T14:06:37.650Z,23.90
2018-10-11T14:09:08.515Z,30.60
2018-10-11T14:11:36.573Z,30.80
2018-10-11T14:14:04.472Z,33.27
2018-10-11T14:16:32.410Z,29.53
2018-10-11T14:19:00.295Z,29.00
2018-10-11T14:21:28.630Z,38.33
2018-10-11T14:23:56.530Z,27.43
2018-10-11T14:26:24.653Z,38.80
2018-10-11T14:28:53.420Z,23.90
2018-10-11T14:31:22.298Z,31.80
2018-10-11T14:33:50.782Z,25.83
2018-10-11T14:36:19.229Z,32.50
2018-10-11T14:38:47.083Z,30.07
2018-10-11T14:41:15.119Z,29.63
2018-10-11T14:43:42.983Z,27.13
2018-10-11T14:46:11.042Z,32.60
2018-10-11T14:48:39.137Z,30.13
2018-10-11T14:51:07.833Z,31.30
2018-10-11T14:53:35.710Z,29.80
2018-10-11T14:56:03.616Z,28.63
2018-10-11T14:58:31.728Z,40.17
2018-10-11T15:00:59.699Z,27.93
2018-10-11T15:03:27.548Z,27.03
2018-10-11T15:05:55.444Z,27.90
2018-10-11T15:08:23.308Z,31.30
2018-10-11T15:10:51.348Z,28.57
2018-10-11T15:13:19.198Z,32.37
2018-10-11T15:15:47.537Z,27.40
2018-10-11T15:18:15.393Z,35.50
2018-10-11T15:20:43.228Z,33.53
2018-10-11T15:23:11.100Z,38.43
2018-10-11T15:25:39.166Z,23.53
2018-10-11T15:28:07.748Z,27.23
2018-10-11T15:30:35.588Z,24.00
2018-10-11T15:33:03.464Z,38.83
2018-10-11T15:35:31.328Z,23.67
2018-10-11T15:37:59.213Z,28.60
2018-10-11T15:40:27.021Z,28.87
2018-10-11T15:42:54.879Z,37.97
2018-10-11T15:45:22.740Z,29.50
2018-10-11T15:47:50.597Z,38.20
2018-10-11T15:50:18.427Z,28.97
2018-10-11T15:52:46.301Z,35.77
2018-10-11T15:55:14.158Z,49.17
2018-10-11T15:57:42.195Z,33.57
2018-10-11T16:00:10.243Z,34.57
2018-10-11T16:02:38.118Z,33.97
2018-10-11T16:05:06.061Z,26.53
2018-10-11T16:07:34.101Z,26.10
2018-10-11T16:10:01.922Z,39.23
2018-10-11T16:12:29.763Z,34.67
2018-10-11T16:14:57.636Z,25.27
2018-10-11T16:17:26.354Z,34.43
2018-10-11T16:19:54.200Z,28.37
2018-10-11T16:22:22.054Z,35.03
2018-10-11T16:24:50.000Z,36.20
2018-10-11T16:27:17.817Z,57.43
2018-10-11T16:29:45.989Z,39.93
2018-10-11T16:32:13.862Z,30.90
2018-10-11T16:34:42.031Z,28.00
2018-10-11T16:37:09.906Z,25.67
2018-10-11T16:39:38.093Z,23.80
2018-10-11T16:42:05.940Z,49.83
2018-10-11T16:44:33.801Z,31.73
2018-10-11T16:47:01.873Z,46.70
2018-10-11T16:49:29.732Z,26.07
2018-10-11T16:51:57.626Z,23.97
2018-10-11T16:54:25.524Z,24.50
2018-10-11T16:56:53.459Z,19.67
2018-10-11T16:59:21.595Z,31.67
2018-10-11T17:01:49.678Z,26.07
2018-10-11T17:04:17.621Z,19.10
2018-10-11T17:06:45.485Z,23.97
2018-10-11T17:09:13.327Z,25.77
2018-10-11T17:11:41.188Z,26.40
2018-10-11T17:14:09.178Z,24.10
2018-10-11T17:16:37.054Z,20.30
2018-10-11T17:19:05.212Z,29.63
2018-10-11T17:21:33.119Z,30.00
2018-10-11T17:24:00.960Z,23.37
2018-10-11T17:26:28.849Z,26.00
2018-10-11T17:28:56.694Z,25.00
2018-10-11T17:31:24.618Z,21.47
2018-10-11T17:33:52.497Z,27.97
2018-10-11T17:36:22.129Z,30.63
2018-10-11T17:38:49.965Z,27.67
2018-10-11T17:41:18.688Z,26.27
2018-10-11T17:43:46.548Z,17.77
2018-10-11T17:46:14.675Z,24.57
2018-10-11T17:48:42.521Z,23.97
2018-10-11T17:51:10.386Z,27.23
2018-10-11T17:53:38.260Z,34.40
2018-10-11T17:56:06.221Z,32.63
2018-10-11T17:58:34.667Z,24.37
2018-10-11T18:01:02.544Z,26.77
2018-10-11T18:03:30.380Z,30.80
2018-10-11T18:05:58.626Z,26.60
2018-10-11T18:08:26.477Z,25.43
2018-10-11T18:10:54.419Z,28.27
2018-10-11T18:13:22.281Z,24.37
2018-10-11T18:15:50.145Z,25.37
2018-10-11T18:18:18.056Z,24.70
2018-10-11T18:20:45.957Z,23.10
2018-10-11T18:23:14.029Z,25.40
2018-10-11T18:25:41.880Z,20.30
2018-10-11T18:28:09.748Z,27.83
2018-10-11T18:30:37.629Z,21.90
2018-10-11T18:33:05.586Z,26.53
2018-10-11T18:35:33.664Z,21.57
2018-10-11T18:38:01.629Z,21.67
2018-10-11T18:40:29.635Z,24.00
2018-10-11T18:42:59.033Z,23.50
2018-10-11T18:45:26.985Z,27.43
2018-10-11T18:47:55.055Z,23.70
2018-10-11T18:50:23.892Z,20.80
2018-10-11T18:52:52.519Z,26.80
2018-10-11T18:55:21.087Z,27.87
2018-10-11T18:57:49.029Z,30.67
2018-10-11T19:00:16.884Z,23.77
2018-10-11T19:02:44.733Z,28.07
2018-10-11T19:05:13.203Z,27.80
2018-10-11T19:07:41.310Z,30.03
2018-10-11T19:10:09.206Z,20.67
2018-10-11T19:12:37.127Z,20.37
2018-10-11T19:15:05.128Z,25.53
2018-10-11T19:17:33.221Z,22.13
2018-10-11T19:20:01.092Z,22.00
2018-10-11T19:22:29.961Z,24.70
2018-10-11T19:24:58.045Z,24.23
2018-10-11T19:27:26.129Z,24.70
2018-10-11T19:29:54.111Z,26.17
2018-10-11T19:32:22.199Z,31.30
2018-10-11T19:34:50.053Z,29.00
2018-10-11T19:37:17.942Z,25.13
2018-10-11T19:39:45.806Z,27.70
2018-10-11T19:42:13.891Z,23.83
2018-10-11T19:44:41.840Z,21.47
2018-10-11T19:47:09.734Z,22.07
2018-10-11T19:49:37.542Z,29.27
2018-10-11T19:52:05.418Z,28.80
2018-10-11T19:54:33.272Z,24.43
2018-10-11T19:57:01.165Z,25.20
2018-10-11T19:59:29.394Z,26.20
2018-10-11T20:01:57.613Z,29.20
2018-10-11T20:04:25.457Z,25.33
2018-10-11T20:06:53.358Z,26.13
2018-10-11T20:09:21.281Z,30.20
2018-10-11T20:11:49.119Z,31.03
2018-10-11T20:14:17.039Z,24.20
2018-10-11T20:16:44.995Z,28.00
2018-10-11T20:19:12.887Z,33.20
2018-10-11T20:21:40.804Z,26.20
2018-10-11T20:24:08.686Z,28.60
2018-10-11T20:26:36.540Z,25.63
2018-10-11T20:29:04.401Z,24.60
2018-10-11T20:31:32.283Z,29.33
2018-10-11T20:34:00.130Z,33.20
2018-10-11T20:36:28.006Z,28.00
2018-10-11T20:38:56.424Z,26.43
2018-10-11T20:41:24.464Z,25.53
2018-10-11T20:43:52.707Z,27.10
2018-10-11T20:46:20.551Z,26.00
2018-10-11T20:48:48.700Z,28.30
2018-10-11T20:51:16.642Z,21.67
2018-10-11T20:53:44.433Z,31.23
2018-10-11T20:56:12.377Z,28.30
2018-10-11T20:58:40.239Z,30.30
2018-10-11T21:01:08.121Z,25.13
2018-10-11T21:03:35.960Z,26.97
2018-10-11T21:06:03.865Z,23.07
2018-10-11T21:08:31.947Z,24.63
2018-10-11T21:10:59.761Z,27.50
2018-10-11T21:13:27.600Z,27.77
2018-10-11T21:15:55.473Z,24.60
2018-10-11T21:18:23.624Z,34.33
2018-10-11T21:20:51.536Z,21.00
2018-10-11T21:23:19.423Z,25.10
2018-10-11T21:25:47.281Z,21.77
2018-10-11T21:28:15.163Z,27.87
2018-10-11T21:30:43.020Z,24.37
2018-10-11T21:33:10.876Z,22.63
2018-10-11T21:35:38.733Z,23.87
2018-10-11T21:38:07.264Z,25.60
2018-10-11T21:40:35.448Z,27.17
2018-10-11T21:43:04.236Z,23.50
2018-10-11T21:45:32.112Z,28.73
2018-10-11T21:48:00.021Z,27.20
2018-10-11T21:50:27.942Z,29.33
2018-10-11T21:52:55.812Z,27.43
2018-10-11T21:55:23.645Z,25.77
2018-10-11T21:57:51.468Z,21.73
2018-10-11T22:00:23.239Z,28.40
2018-10-11T22:02:51.053Z,29.23
2018-10-11T22:05:19.234Z,28.97
2018-10-11T22:07:47.088Z,24.93
2018-10-11T22:10:14.920Z,27.80
2018-10-11T22:12:42.768Z,20.73
2018-10-11T22:15:10.813Z,25.60
2018-10-11T22:17:38.707Z,22.37
2018-10-11T22:20:06.714Z,23.80
2018-10-11T22:22:34.692Z,26.93
2018-10-11T22:25:02.520Z,23.07
2018-10-11T22:27:30.377Z,22.53
2018-10-11T22:29:58.249Z,28.77
2018-10-11T22:32:26.113Z,28.00
2018-10-11T22:34:53.978Z,26.67
2018-10-11T22:37:22.223Z,26.40
2018-10-11T22:39:50.121Z,30.57
2018-10-11T22:42:18.779Z,25.57
2018-10-11T22:44:47.722Z,24.57
2018-10-11T22:47:15.575Z,22.50
2018-10-11T22:49:43.529Z,26.20
2018-10-11T22:52:11.392Z,22.37
2018-10-11T22:54:39.271Z,27.40
2018-10-11T22:57:07.146Z,28.80
2018-10-11T22:59:35.019Z,26.03
2018-10-11T23:02:03.235Z,25.50
2018-10-11T23:04:31.072Z,26.90
2018-10-11T23:06:58.931Z,24.13
2018-10-11T23:09:26.776Z,26.27
2018-10-11T23:11:54.593Z,26.30
2018-10-11T23:14:22.601Z,30.43
2018-10-11T23:16:50.744Z,26.60
2018-10-11T23:19:18.647Z,30.40
2018-10-11T23:21:46.537Z,24.17
2018-10-11T23:24:14.460Z,29.53
2018-10-11T23:26:42.532Z,23.50
2018-10-11T23:29:10.442Z,24.63
2018-10-11T23:31:38.281Z,34.50
2018-10-11T23:34:06.404Z,29.40
2018-10-11T23:36:34.250Z,26.50
2018-10-11T23:39:02.161Z,26.47
2018-10-11T23:41:30.027Z,32.40
2018-10-11T23:43:57.874Z,27.70
2018-10-11T23:46:25.747Z,31.20
2018-10-11T23:48:53.609Z,35.17
2018-10-11T23:51:21.430Z,31.67
2018-10-11T23:53:49.271Z,32.77
2018-10-11T23:56:17.103Z,28.77
2018-10-11T23:58:44.963Z,31.40
